Latest Weather Observations for Sunshine Coast Airport

IDQ60801

Issued at 11:12 am EST Tuesday 14 July 2020 (issued every 10 minutes, with the page automatically refreshed every 10 minutes)

About weather observations | Map of weather stations | Latest weather observations for QLD | Other Formats
Station Details ID: 040861 Name: SUNSHINE COAST AIRPORT Lat: -26.60 Lon: 153.09 Height: 3.42 m
Data from the previous 72 hours. | See also: Recent months at Sunshine Coast Airport
Date/Time
EST
Temp
°C
App
Temp
°C
Dew
Point
°C
Rel
Hum
%
Delta-T
°C
Wind Press
QNH
hPa
Press
MSL
hPa
Rain since
9am
mm
Dir  Spd
km/h
Gust
km/h
Spd
kts
Gust
kts
14/11:00am 16.2 7.3 4.9 47 5.3 WSW 41 56 22 30 1016.0 1015.9 0.0
14/10:34am 16.0 7.1 5.0 48 5.2 WSW 41 59 22 32 1016.5 1016.4 0.0
14/10:30am 15.8 6.5 5.1 49 5.1 WSW 43 59 23 32 1016.4 1016.3 0.0
14/10:11am 15.3 5.9 4.4 48 5.1 W 43 63 23 34 1016.6 1016.5 0.0
14/10:00am 15.2 6.2 4.6 49 4.9 W 41 56 22 30 1016.8 1016.7 0.0
14/09:33am 14.4 5.0 4.4 51 4.6 WSW 43 61 23 33 1017.1 1017.0 0.0
14/09:30am 14.3 5.0 4.9 53 4.4 WSW 43 59 23 32 1017.2 1017.1 0.0
14/09:00am 13.6 5.0 4.7 55 4.1 WSW 39 61 21 33 1017.4 1017.3 0.0
14/08:43am 13.3 5.7 5.7 60 3.6 WSW 35 54 19 29 1017.8 1017.7 0.0
14/08:30am 12.9 5.5 5.1 59 3.6 W 33 46 18 25 1017.8 1017.7 0.0
14/08:17am 12.6 6.2 5.3 61 3.4 WSW 28 46 15 25 1017.9 1017.8 0.0
14/08:00am 12.1 7.1 4.8 61 3.3 W 20 33 11 18 1018.3 1018.2 0.0
14/07:30am 11.2 5.9 4.9 65 2.9 W 22 33 12 18 1018.1 1018.0 0.0
14/07:00am 9.5 5.4 4.5 71 2.2 NW 15 24 8 13 1018.5 1018.4 0.0
14/06:30am 9.4 4.9 4.4 71 2.2 WNW 17 24 9 13 1018.3 1018.2 0.0
14/06:00am 9.6 4.6 4.4 70 2.3 WNW 20 30 11 16 1017.8 1017.7 0.0
14/05:30am 8.5 5.5 3.9 73 2.0 W 9 15 5 8 1017.7 1017.6 0.0
14/05:00am 8.6 5.5 3.6 71 2.1 NNW 9 13 5 7 1017.6 1017.5 0.0
14/04:30am 9.1 6.1 3.9 70 2.3 WNW 9 13 5 7 1017.5 1017.4 0.0
14/04:00am 8.0 5.3 3.8 75 1.8 NNW 7 11 4 6 1017.4 1017.3 0.0
14/03:30am 9.0 6.0 4.2 72 2.1 NW 9 13 5 7 1017.5 1017.4 0.0
14/03:00am 10.4 7.4 4.1 65 2.8 W 9 13 5 7 1017.7 1017.6 0.0
14/02:30am 10.4 7.1 4.5 67 2.6 WSW 11 17 6 9 1017.7 1017.6 0.0
14/02:00am 9.1 8.0 4.9 75 1.9 CALM 0 4 0 2 1018.0 1017.9 0.0
14/01:30am 9.2 6.9 5.0 75 1.9 WNW 6 9 3 5 1018.3 1018.2 0.0
14/01:00am 8.5 4.9 5.1 79 1.5 W 13 17 7 9 1018.6 1018.5 0.0
14/12:30am 8.2 6.8 5.5 83 1.2 NW 2 7 1 4 1018.8 1018.7 0.0
14/12:00am 10.5 8.3 5.5 71 2.3 NE 6 7 3 4 1019.0 1018.9 0.0
 
Date/Time
EST
Temp
°C
App
Temp
°C
Dew
Point
°C
Rel
Hum
%
Delta-T
°C
Wind Press
QNH
hPa
Press
MSL
hPa
Rain since
9am
mm
Dir  Spd
km/h
Gust
km/h
Spd
kts
Gust
kts
13/11:30pm 10.2 8.4 5.4 72 2.2 WSW 4 7 2 4 1019.1 1019.0 0.0
13/11:00pm 11.3 8.4 4.7 64 3.0 WSW 9 13 5 7 1019.2 1019.1 0.0
13/10:30pm 11.1 8.3 5.2 67 2.7 W 9 13 5 7 1019.2 1019.1 0.0
13/10:00pm 12.2 8.7 5.4 63 3.1 SW 13 15 7 8 1019.2 1019.1 0.0
13/09:30pm 12.3 8.5 5.9 65 3.0 SSW 15 17 8 9 1019.1 1019.0 0.0
13/09:00pm 12.7 9.8 6.3 65 3.0 SSW 11 13 6 7 1019.1 1019.0 0.0
13/08:30pm 11.9 9.4 6.6 70 2.5 SW 9 11 5 6 1019.2 1019.1 0.0
13/08:00pm 12.8 10.8 7.3 69 2.7 SW 7 9 4 5 1018.8 1018.7 0.0
13/07:30pm 11.8 9.9 7.7 76 2.0 W 7 9 4 5 1018.5 1018.4 0.0
13/07:00pm 13.7 11.3 6.8 63 3.3 SW 9 13 5 7 1018.1 1018.0 0.0
13/06:30pm 14.8 11.6 6.9 59 3.9 SW 13 15 7 8 1017.7 1017.6 0.0
13/06:00pm 15.4 12.3 7.2 58 4.0 SW 13 19 7 10 1017.1 1017.0 0.0
13/05:30pm 16.5 12.9 6.9 53 4.7 SW 15 19 8 10 1016.7 1016.6 0.0
13/05:00pm 17.7 15.0 7.4 51 5.2 SW 11 15 6 8 1016.1 1016.0 0.0
13/04:30pm 19.1 16.3 8.4 50 5.5 WSW 13 17 7 9 1015.8 1015.7 0.0
13/04:00pm 19.8 16.0 7.5 45 6.3 SW 17 20 9 11 1015.7 1015.6 0.0
13/03:30pm 20.0 15.7 7.7 45 6.3 SW 20 30 11 16 1015.5 1015.4 0.0
13/03:00pm 19.5 15.0 8.5 49 5.7 WSW 22 28 12 15 1015.4 1015.3 0.0
13/02:30pm 20.3 16.9 9.2 49 5.9 WSW 17 24 9 13 1015.2 1015.1 0.0
13/02:00pm 21.2 18.7 9.8 48 6.1 WSW 13 22 7 12 1015.1 1015.0 0.0
13/01:30pm 20.8 17.5 9.4 48 6.1 WSW 17 22 9 12 1015.1 1015.0 0.0
13/01:00pm 20.1 18.2 9.1 49 5.8 SW 9 15 5 8 1015.3 1015.2 0.0
13/12:30pm 19.8 17.7 9.7 52 5.4 SSW 11 17 6 9 1015.5 1015.4 0.0
13/12:00pm 19.2 16.3 9.7 54 5.0 SW 15 20 8 11 1016.1 1016.0 0.0
13/11:30am 18.8 15.6 9.8 56 4.8 WSW 17 24 9 13 1016.5 1016.4 0.0
13/11:00am 17.9 14.8 10.3 61 4.0 SW 17 24 9 13 1017.1 1017.0 0.0
13/10:30am 17.5 15.5 11.5 68 3.3 SW 13 19 7 10 1017.1 1017.0 0.0
13/10:00am 16.4 15.1 12.4 77 2.2 WSW 11 15 6 8 1017.4 1017.3 0.0
13/09:30am 15.9 14.7 12.8 82 1.7 SW 11 13 6 7 1017.6 1017.5 0.0
13/09:00am 15.4 15.4 14.1 92 0.7 SW 7 11 4 6 1017.3 1017.2 23.0
13/08:30am 15.3 15.4 14.5 95 0.5 SW 7 9 4 5 1017.2 1017.1 23.0
13/08:00am 15.4 15.2 14.8 96 0.3 SW 9 11 5 6 1017.2 1017.1 23.0
13/07:30am 15.3 15.1 14.7 96 0.3 SW 9 11 5 6 1016.9 1016.8 23.0
13/07:00am 15.2 15.5 14.6 96 0.3 WSW 6 7 3 4 1016.5 1016.4 23.0
13/06:30am 15.1 15.4 14.5 96 0.3 W 6 9 3 5 1016.5 1016.4 23.0
13/06:00am 15.1 15.4 14.5 96 0.3 WNW 6 7 3 4 1016.2 1016.1 23.0
13/05:30am 15.1 14.8 14.5 96 0.3 W 9 9 5 5 1016.0 1015.9 23.0
13/05:00am 15.2 15.0 14.6 96 0.3 WNW 9 11 5 6 1015.8 1015.7 23.0
13/04:30am 15.2 15.5 14.6 96 0.3 WSW 6 9 3 5 1015.6 1015.5 22.8
13/04:00am 15.2 15.9 14.6 96 0.3 N 4 11 2 6 1015.6 1015.5 22.6
13/03:30am 15.0 15.1 14.4 96 0.3 NNW 7 11 4 6 1015.8 1015.7 22.4
13/03:00am 15.1 15.1 14.3 95 0.5 NNW 7 13 4 7 1015.8 1015.7 22.4
13/02:30am 15.2 15.5 14.6 96 0.3 N 6 9 3 5 1015.8 1015.7 22.2
13/02:00am 15.3 16.4 14.5 95 0.5 WNW 2 6 1 3 1015.8 1015.7 22.0
13/01:30am 15.6 15.4 14.8 95 0.5 WNW 9 9 5 5 1016.3 1016.2 22.0
13/01:23am 15.5 15.7 14.7 95 0.5 WNW 7 11 4 6 1016.4 1016.3 22.0
13/01:05am 15.5 15.7 14.7 95 0.5 WNW 7 9 4 5 1016.5 1016.4 21.6
13/01:00am 15.5 15.7 14.7 95 0.5 WNW 7 9 4 5 1016.6 1016.5 20.8
13/12:30am 15.6 17.2 15.0 96 0.3 CALM 0 2 0 1 1016.4 1016.3 20.4
13/12:26am 15.8 17.5 15.2 96 0.3 CALM 0 2 0 1 1016.4 1016.3 20.4
13/12:00am 15.7 16.2 15.1 96 0.3 NNW 6 11 3 6 1016.7 1016.6 18.0
 
Date/Time
EST
Temp
°C
App
Temp
°C
Dew
Point
°C
Rel
Hum
%
Delta-T
°C
Wind Press
QNH
hPa
Press
MSL
hPa
Rain since
9am
mm
Dir  Spd
km/h
Gust
km/h
Spd
kts
Gust
kts
12/11:55pm 15.7 16.0 15.1 96 0.3 NNW 7 9 4 5 1016.8 1016.7 17.0
12/11:30pm 15.7 16.2 14.9 95 0.5 NNW 6 11 3 6 1016.7 1016.6 16.0
12/11:00pm 15.8 16.3 15.0 95 0.5 NW 6 9 3 5 1016.6 1016.5 15.8
12/10:30pm 15.9 15.1 15.1 95 0.5 SW 13 17 7 9 1016.7 1016.6 15.6
12/10:06pm 15.9 15.5 15.1 95 0.5 SW 11 13 6 7 1017.0 1016.9 13.6
12/10:00pm 15.9 15.5 15.1 95 0.5 SW 11 15 6 8 1017.2 1017.1 13.0
12/09:53pm 16.0 15.2 15.2 95 0.5 SSW 13 17 7 9 1017.1 1017.0 12.4
12/09:30pm 15.9 15.1 15.1 95 0.5 WSW 13 17 7 9 1017.2 1017.1 9.0
12/09:24pm 16.1 15.7 15.1 94 0.6 W 11 15 6 8 1017.0 1016.9 8.2
12/09:22pm 16.1 16.1 15.1 94 0.6 WNW 9 13 5 7 1017.1 1017.0 7.6
12/09:00pm 16.1 16.4 15.1 94 0.6 WSW 7 15 4 8 1016.9 1016.8 5.2
12/08:42pm 16.4 15.3 15.3 93 0.6 WSW 15 24 8 13 1017.0 1016.9 3.8
12/08:30pm 16.7 15.9 15.2 91 0.9 SSW 13 19 7 10 1017.1 1017.0 2.6
12/08:00pm 16.7 16.2 14.9 89 1.0 SSE 11 15 6 8 1016.5 1016.4 2.2
12/07:30pm 16.5 17.0 15.0 91 0.9 ENE 6 7 3 4 1016.6 1016.5 2.2
12/07:00pm 16.8 16.1 15.3 91 0.9 SSW 13 15 7 8 1016.1 1016.0 2.2
12/06:30pm 16.9 18.6 15.1 89 1.0 CALM 0 2 0 1 1015.7 1015.6 1.4
12/06:00pm 16.9 17.2 14.5 86 1.4 NNW 6 9 3 5 1015.6 1015.5 1.2
12/05:30pm 19.0 17.8 14.1 73 2.8 S 13 15 7 8 1015.1 1015.0 0.0
12/05:00pm 19.5 18.3 14.1 71 3.1 SSW 13 17 7 9 1015.0 1014.9 0.0
12/04:30pm 19.8 18.7 14.4 71 3.1 S 13 17 7 9 1014.6 1014.6 0.0
12/04:00pm 20.3 18.5 14.4 69 3.4 S 17 20 9 11 1014.5 1014.5 0.0
12/03:30pm 20.4 18.1 14.1 67 3.6 S 19 22 10 12 1014.4 1014.4 0.0
12/03:00pm 20.8 19.3 16.4 76 2.7 SSE 19 24 10 13 1014.4 1014.4 0.0
12/02:30pm 22.7 23.4 18.0 75 2.9 ENE 11 15 6 8 1014.1 1014.1 0.0
12/02:00pm 23.3 23.5 14.6 58 5.1 WNW 7 11 4 6 1014.0 1014.0 0.0
12/01:30pm 22.8 22.8 14.1 58 5.1 W 7 13 4 7 1014.1 1014.1 0.0
12/01:00pm 23.0 22.6 15.3 62 4.6 W 11 15 6 8 1014.3 1014.3 0.0
12/12:30pm 23.0 21.4 14.0 57 5.3 WNW 15 20 8 11 1014.7 1014.7 0.0
12/12:00pm 23.7 22.5 16.2 63 4.6 NW 17 28 9 15 1014.8 1014.8 0.0
12/11:30am 22.7 21.7 16.5 68 3.8 NW 17 24 9 13 1015.1 1015.0 0.0
12/11:00am 22.4 20.8 16.0 67 3.9 NW 19 22 10 12 1015.7 1015.6 0.0
12/10:30am 21.8 20.6 16.1 70 3.4 NW 17 20 9 11 1016.2 1016.1 0.0
12/10:00am 21.1 21.3 16.7 76 2.7 NW 11 15 6 8 1016.8 1016.7 0.0
12/09:30am 19.6 19.1 15.9 79 2.2 NW 13 17 7 9 1016.9 1016.8 0.0
12/09:00am 18.5 18.4 15.9 85 1.5 NW 11 13 6 7 1016.7 1016.6 0.2
12/08:30am 17.0 16.3 15.5 91 0.9 NW 13 15 7 8 1016.6 1016.5 0.2
12/08:00am 15.5 14.2 14.9 96 0.3 NW 15 17 8 9 1016.6 1016.5 0.2
12/07:30am 14.7 13.6 14.2 97 0.3 WNW 13 15 7 8 1016.3 1016.2 0.2
12/07:00am 12.6 10.8 12.1 97 0.3 WNW 13 15 7 8 1016.2 1016.1 0.2
12/06:30am 11.9 10.6 11.3 96 0.3 WNW 9 11 5 6 1016.0 1015.9 0.2
12/06:00am 12.2 10.6 11.7 97 0.3 NW 11 13 6 7 1015.6 1015.5 0.2
12/05:30am 11.8 10.5 11.2 96 0.3 W 9 13 5 7 1015.4 1015.3 0.2
12/05:00am 12.0 10.4 11.4 96 0.3 W 11 13 6 7 1015.4 1015.3 0.2
12/04:30am 12.5 11.0 11.9 96 0.3 WNW 11 13 6 7 1015.3 1015.2 0.2
12/04:00am 12.5 10.6 11.9 96 0.3 WNW 13 13 7 7 1015.4 1015.3 0.2
12/03:30am 12.6 11.5 12.0 96 0.3 WNW 9 11 5 6 1015.6 1015.5 0.2
12/03:00am 12.9 11.5 12.3 96 0.3 NW 11 13 6 7 1015.9 1015.8 0.2
12/02:30am 13.2 11.5 12.6 96 0.3 WNW 13 15 7 8 1015.9 1015.8 0.2
12/02:00am 13.0 11.3 12.4 96 0.3 NW 13 13 7 7 1016.0 1015.9 0.2
12/01:30am 13.0 11.3 12.4 96 0.3 WNW 13 13 7 7 1016.5 1016.4 0.2
12/01:00am 13.2 11.9 12.6 96 0.3 WNW 11 11 6 6 1016.9 1016.8 0.2
12/12:30am 13.3 12.4 12.7 96 0.3 WNW 9 11 5 6 1017.2 1017.1 0.0
12/12:00am 13.7 13.0 13.1 96 0.3 WNW 9 11 5 6 1017.3 1017.2 0.0
 
Date/Time
EST
Temp
°C
App
Temp
°C
Dew
Point
°C
Rel
Hum
%
Delta-T
°C
Wind Press
QNH
hPa
Press
MSL
hPa
Rain since
9am
mm
Dir  Spd
km/h
Gust
km/h
Spd
kts
Gust
kts
11/11:30pm 13.9 12.9 13.3 96 0.3 WNW 11 13 6 7 1017.4 1017.3 0.0
11/11:00pm 13.3 12.0 12.5 95 0.4 NW 11 11 6 6 1017.6 1017.5 0.0
11/10:30pm 13.9 13.5 13.0 94 0.5 W 7 9 4 5 1017.8 1017.7 0.0
11/10:00pm 14.5 14.3 13.5 94 0.6 W 7 9 4 5 1017.8 1017.7 0.0
11/09:30pm 14.7 14.7 13.6 93 0.6 WSW 6 7 3 4 1017.9 1017.8 0.0
11/09:00pm 15.5 15.6 14.5 94 0.6 W 7 9 4 5 1018.0 1017.9 0.0
11/08:30pm 14.8 14.2 13.5 92 0.7 NW 9 13 5 7 1018.0 1017.9 0.0
11/08:00pm 15.5 15.1 14.2 92 0.7 WNW 9 11 5 6 1017.9 1017.8 0.0
11/07:30pm 15.9 15.1 14.1 89 1.0 WNW 11 13 6 7 1018.0 1017.9 0.0
11/07:00pm 18.3 17.1 15.0 81 1.9 NNE 15 19 8 10 1017.7 1017.6 0.0
11/06:30pm 19.1 17.4 15.8 81 2.0 NNE 19 22 10 12 1017.5 1017.4 0.0
11/06:00pm 17.6 16.8 15.0 85 1.5 NNE 13 17 7 9 1017.4 1017.3 0.0
11/05:30pm 18.5 18.0 15.0 80 2.0 NNE 11 15 6 8 1017.3 1017.2 0.0
11/05:00pm 19.3 18.2 15.4 78 2.3 NNE 15 17 8 9 1017.2 1017.1 0.0
11/04:30pm 20.2 18.8 15.6 75 2.7 NNE 17 20 9 11 1017.1 1017.0 0.0
11/04:00pm 20.7 19.5 16.1 75 2.8 NE 17 20 9 11 1017.1 1017.0 0.0
11/03:30pm 21.0 19.9 16.4 75 2.8 NE 17 19 9 10 1017.1 1017.0 0.0
11/03:00pm 20.6 19.4 16.2 76 2.6 NE 17 20 9 11 1017.2 1017.1 0.0
11/02:30pm 20.7 20.0 16.3 76 2.6 NE 15 19 8 10 1017.3 1017.2 0.0
11/02:00pm 20.9 20.0 15.9 73 3.0 ENE 15 17 8 9 1017.6 1017.5 0.0
11/01:30pm 21.2 20.4 16.2 73 3.0 ENE 15 19 8 10 1017.8 1017.7 0.0
11/01:00pm 20.9 20.2 16.3 75 2.8 NE 15 19 8 10 1018.0 1017.9 0.0
11/12:30pm 20.9 20.2 16.3 75 2.8 ENE 15 19 8 10 1018.3 1018.2 0.0
11/12:00pm 20.4 19.8 16.6 79 2.3 E 15 17 8 9 1018.9 1018.8 0.0
11/11:30am 20.4 20.2 16.6 79 2.3 E 13 15 7 8 1019.5 1019.4 0.0

Other formats

Comma delimited format used in spreadsheet applications
http://www.bom.gov.au/fwo/IDQ60801/IDQ60801.94569.axf

JavaScript Object Notation format (JSON) in row-major order
http://www.bom.gov.au/fwo/IDQ60801/IDQ60801.94569.json

Data quality

Most of these data are generated automatically and are frequently updated. Quality checks on data are not normally performed. It is possible for incorrect values to appear. Refer to information at About Latest Weather Observations and please check the disclaimer before using these data.